sensor_id;sensor_type;location;lat;lon;timestamp;pressure;altitude;pressure_sealevel;temperature;humidity
75815;BME280;70031;45.570;14.228;2023-07-22T00:01:17;96668.31;;;17.88;100.00
75815;BME280;70031;45.570;14.228;2023-07-22T00:03:17;96666.25;;;17.85;100.00
75815;BME280;70031;45.570;14.228;2023-07-22T00:05:18;96663.41;;;17.81;100.00
75815;BME280;70031;45.570;14.228;2023-07-22T00:07:23;96667.28;;;17.80;100.00
75815;BME280;70031;45.570;14.228;2023-07-22T00:09:23;96668.06;;;17.81;100.00
75815;BME280;70031;45.570;14.228;2023-07-22T00:11:24;96655.34;;;17.85;100.00
75815;BME280;70031;45.570;14.228;2023-07-22T00:13:25;96661.94;;;17.84;100.00
75815;BME280;70031;45.570;14.228;2023-07-22T00:15:27;96652.63;;;17.85;100.00
75815;BME280;70031;45.570;14.228;2023-07-22T00:17:27;96643.56;;;17.81;100.00
75815;BME280;70031;45.570;14.228;2023-07-22T00:19:27;96645.16;;;17.82;100.00
75815;BME280;70031;45.570;14.228;2023-07-22T00:21:28;96640.84;;;17.81;100.00
75815;BME280;70031;45.570;14.228;2023-07-22T00:23:29;96641.75;;;17.85;100.00
75815;BME280;70031;45.570;14.228;2023-07-22T00:25:30;96646.19;;;17.89;100.00
75815;BME280;70031;45.570;14.228;2023-07-22T00:27:30;96653.31;;;17.82;100.00
75815;BME280;70031;45.570;14.228;2023-07-22T00:29:30;96651.19;;;17.87;100.00
75815;BME280;70031;45.570;14.228;2023-07-22T00:31:31;96659.78;;;18.02;100.00
75815;BME280;70031;45.570;14.228;2023-07-22T00:33:32;96664.09;;;17.90;100.00
75815;BME280;70031;45.570;14.228;2023-07-22T00:35:32;96660.25;;;17.79;100.00
75815;BME280;70031;45.570;14.228;2023-07-22T00:37:33;96663.75;;;17.80;100.00
75815;BME280;70031;45.570;14.228;2023-07-22T00:39:33;96653.97;;;17.79;100.00
75815;BME280;70031;45.570;14.228;2023-07-22T00:41:34;96645.38;;;17.89;100.00
75815;BME280;70031;45.570;14.228;2023-07-22T00:43:34;96633.56;;;17.85;100.00
75815;BME280;70031;45.570;14.228;2023-07-22T00:45:34;96623.16;;;17.75;100.00
75815;BME280;70031;45.570;14.228;2023-07-22T00:47:35;96612.44;;;17.69;100.00
75815;BME280;70031;45.570;14.228;2023-07-22T00:49:36;96641.94;;;17.67;100.00
75815;BME280;70031;45.570;14.228;2023-07-22T00:51:36;96659.66;;;17.74;100.00
75815;BME280;70031;45.570;14.228;2023-07-22T00:53:36;96673.38;;;17.77;100.00
75815;BME280;70031;45.570;14.228;2023-07-22T00:55:39;96678.97;;;17.81;100.00
75815;BME280;70031;45.570;14.228;2023-07-22T00:57:40;96678.72;;;17.86;100.00
75815;BME280;70031;45.570;14.228;2023-07-22T00:59:41;96673.28;;;17.86;100.00
75815;BME280;70031;45.570;14.228;2023-07-22T01:01:41;96665.47;;;17.96;100.00
75815;BME280;70031;45.570;14.228;2023-07-22T01:03:42;96669.00;;;17.97;100.00
75815;BME280;70031;45.570;14.228;2023-07-22T01:05:43;96672.50;;;17.98;100.00
75815;BME280;70031;45.570;14.228;2023-07-22T01:07:43;96667.16;;;18.01;100.00
75815;BME280;70031;45.570;14.228;2023-07-22T01:09:44;96665.38;;;18.05;100.00
75815;BME280;70031;45.570;14.228;2023-07-22T01:11:45;96656.72;;;18.03;100.00
75815;BME280;70031;45.570;14.228;2023-07-22T01:13:45;96643.56;;;18.05;100.00
75815;BME280;70031;45.570;14.228;2023-07-22T01:15:46;96633.13;;;18.07;100.00
75815;BME280;70031;45.570;14.228;2023-07-22T01:17:46;96629.50;;;18.03;100.00
75815;BME280;70031;45.570;14.228;2023-07-22T01:19:47;96616.34;;;18.05;100.00
75815;BME280;70031;45.570;14.228;2023-07-22T01:21:49;96610.91;;;17.93;100.00
75815;BME280;70031;45.570;14.228;2023-07-22T01:23:50;96614.06;;;17.83;100.00
75815;BME280;70031;45.570;14.228;2023-07-22T01:25:51;96608.63;;;17.71;100.00
75815;BME280;70031;45.570;14.228;2023-07-22T01:27:52;96596.81;;;17.79;100.00
75815;BME280;70031;45.570;14.228;2023-07-22T01:29:53;96592.19;;;17.79;100.00
75815;BME280;70031;45.570;14.228;2023-07-22T01:31:55;96593.66;;;17.77;100.00
75815;BME280;70031;45.570;14.228;2023-07-22T01:33:55;96595.13;;;17.99;100.00
75815;BME280;70031;45.570;14.228;2023-07-22T01:35:56;96599.53;;;17.79;100.00
75815;BME280;70031;45.570;14.228;2023-07-22T01:37:56;96618.91;;;17.65;100.00
75815;BME280;70031;45.570;14.228;2023-07-22T01:39:56;96646.34;;;17.60;100.00
75815;BME280;70031;45.570;14.228;2023-07-22T01:41:57;96655.25;;;17.36;100.00
75815;BME280;70031;45.570;14.228;2023-07-22T01:43:58;96657.41;;;17.30;100.00
75815;BME280;70031;45.570;14.228;2023-07-22T01:45:58;96663.53;;;17.39;100.00
75815;BME280;70031;45.570;14.228;2023-07-22T01:47:58;96650.84;;;17.44;100.00
75815;BME280;70031;45.570;14.228;2023-07-22T01:49:59;96652.91;;;17.59;100.00
75815;BME280;70031;45.570;14.228;2023-07-22T01:51:59;96650.00;;;17.64;100.00
75815;BME280;70031;45.570;14.228;2023-07-22T01:54:00;96640.44;;;17.58;100.00
75815;BME280;70031;45.570;14.228;2023-07-22T01:56:01;96626.94;;;17.61;100.00
75815;BME280;70031;45.570;14.228;2023-07-22T01:58:01;96624.31;;;17.40;100.00
75815;BME280;70031;45.570;14.228;2023-07-22T02:02:11;96624.88;;;17.34;100.00
75815;BME280;70031;45.570;14.228;2023-07-22T02:04:11;96615.72;;;17.38;100.00
75815;BME280;70031;45.570;14.228;2023-07-22T02:06:12;96612.50;;;17.24;100.00
75815;BME280;70031;45.570;14.228;2023-07-22T02:08:12;96609.41;;;17.13;100.00
75815;BME280;70031;45.570;14.228;2023-07-22T02:10:12;96609.97;;;17.07;100.00
75815;BME280;70031;45.570;14.228;2023-07-22T02:12:13;96607.78;;;17.00;100.00
75815;BME280;70031;45.570;14.228;2023-07-22T02:14:14;96612.63;;;16.95;100.00
75815;BME280;70031;45.570;14.228;2023-07-22T02:16:15;96609.56;;;16.96;100.00
75815;BME280;70031;45.570;14.228;2023-07-22T02:18:16;96601.75;;;16.95;100.00
75815;BME280;70031;45.570;14.228;2023-07-22T02:20:17;96609.56;;;16.96;100.00
75815;BME280;70031;45.570;14.228;2023-07-22T02:22:17;96600.84;;;16.91;100.00
75815;BME280;70031;45.570;14.228;2023-07-22T02:24:17;96599.25;;;16.90;100.00
75815;BME280;70031;45.570;14.228;2023-07-22T02:26:18;96601.56;;;16.79;100.00
75815;BME280;70031;45.570;14.228;2023-07-22T02:28:19;96603.72;;;16.73;100.00
75815;BME280;70031;45.570;14.228;2023-07-22T02:30:21;96605.75;;;16.76;100.00
75815;BME280;70031;45.570;14.228;2023-07-22T02:32:22;96617.44;;;16.77;100.00
75815;BME280;70031;45.570;14.228;2023-07-22T02:34:22;96611.91;;;16.65;100.00
75815;BME280;70031;45.570;14.228;2023-07-22T02:36:22;96621.53;;;16.83;100.00
75815;BME280;70031;45.570;14.228;2023-07-22T02:38:23;96615.94;;;16.79;100.00
75815;BME280;70031;45.570;14.228;2023-07-22T02:40:23;96625.91;;;16.75;100.00
75815;BME280;70031;45.570;14.228;2023-07-22T02:42:23;96622.25;;;16.71;100.00
75815;BME280;70031;45.570;14.228;2023-07-22T02:44:24;96622.59;;;16.70;100.00
75815;BME280;70031;45.570;14.228;2023-07-22T02:46:24;96625.91;;;16.75;100.00
75815;BME280;70031;45.570;14.228;2023-07-22T02:48:25;96625.63;;;16.68;100.00
75815;BME280;70031;45.570;14.228;2023-07-22T02:50:25;96633.38;;;16.57;100.00
75815;BME280;70031;45.570;14.228;2023-07-22T02:52:26;96629.72;;;16.53;100.00
75815;BME280;70031;45.570;14.228;2023-07-22T02:54:26;96637.75;;;16.50;100.00
75815;BME280;70031;45.570;14.228;2023-07-22T02:56:27;96641.00;;;16.43;100.00
75815;BME280;70031;45.570;14.228;2023-07-22T02:58:27;96646.03;;;16.03;100.00
75815;BME280;70031;45.570;14.228;2023-07-22T03:00:27;96648.84;;;15.86;100.00
75815;BME280;70031;45.570;14.228;2023-07-22T03:02:28;96643.69;;;15.93;100.00
75815;BME280;70031;45.570;14.228;2023-07-22T03:04:29;96652.47;;;15.98;100.00
75815;BME280;70031;45.570;14.228;2023-07-22T03:06:29;96650.28;;;15.83;100.00
75815;BME280;70031;45.570;14.228;2023-07-22T03:08:31;96644.91;;;16.04;100.00
75815;BME280;70031;45.570;14.228;2023-07-22T03:10:31;96652.97;;;15.92;100.00
75815;BME280;70031;45.570;14.228;2023-07-22T03:12:33;96646.81;;;15.74;100.00
75815;BME280;70031;45.570;14.228;2023-07-22T03:14:34;96658.66;;;15.61;100.00
75815;BME280;70031;45.570;14.228;2023-07-22T03:16:37;96661.84;;;15.54;100.00
75815;BME280;70031;45.570;14.228;2023-07-22T03:18:37;96667.09;;;15.59;100.00
75815;BME280;70031;45.570;14.228;2023-07-22T03:20:40;96662.81;;;15.67;100.00
75815;BME280;70031;45.570;14.228;2023-07-22T03:22:41;96670.56;;;15.77;100.00
75815;BME280;70031;45.570;14.228;2023-07-22T03:24:42;96672.31;;;15.82;100.00
75815;BME280;70031;45.570;14.228;2023-07-22T03:26:43;96671.03;;;15.79;100.00
75815;BME280;70031;45.570;14.228;2023-07-22T03:28:43;96674.50;;;15.88;100.00
75815;BME280;70031;45.570;14.228;2023-07-22T03:30:43;96674.25;;;15.81;100.00
75815;BME280;70031;45.570;14.228;2023-07-22T03:32:47;96680.63;;;15.77;100.00
75815;BME280;70031;45.570;14.228;2023-07-22T03:34:48;96683.50;;;15.71;100.00
75815;BME280;70031;45.570;14.228;2023-07-22T03:36:48;96687.69;;;15.69;100.00
75815;BME280;70031;45.570;14.228;2023-07-22T03:38:49;96685.28;;;15.67;100.00
75815;BME280;70031;45.570;14.228;2023-07-22T03:40:49;96700.13;;;15.70;100.00
75815;BME280;70031;45.570;14.228;2023-07-22T03:42:50;96695.66;;;15.74;100.00
75815;BME280;70031;45.570;14.228;2023-07-22T03:44:51;96703.41;;;15.93;100.00
75815;BME280;70031;45.570;14.228;2023-07-22T03:46:51;96700.06;;;15.87;100.00
75815;BME280;70031;45.570;14.228;2023-07-22T03:48:52;96710.28;;;15.90;100.00
75815;BME280;70031;45.570;14.228;2023-07-22T03:50:54;96712.88;;;15.78;100.00
75815;BME280;70031;45.570;14.228;2023-07-22T03:52:54;96721.06;;;15.61;100.00
75815;BME280;70031;45.570;14.228;2023-07-22T03:54:55;96732.06;;;15.38;100.00
75815;BME280;70031;45.570;14.228;2023-07-22T03:56:55;96726.97;;;15.37;100.00
75815;BME280;70031;45.570;14.228;2023-07-22T03:58:55;96730.78;;;15.44;100.00
75815;BME280;70031;45.570;14.228;2023-07-22T04:00:56;96726.34;;;15.40;100.00
75815;BME280;70031;45.570;14.228;2023-07-22T04:02:56;96734.13;;;15.50;100.00
75815;BME280;70031;45.570;14.228;2023-07-22T04:04:57;96738.47;;;15.42;100.00
75815;BME280;70031;45.570;14.228;2023-07-22T04:06:57;96743.38;;;15.58;100.00
75815;BME280;70031;45.570;14.228;2023-07-22T04:08:58;96749.72;;;15.79;100.00
75815;BME280;70031;45.570;14.228;2023-07-22T04:11:00;96750.81;;;15.87;100.00
75815;BME280;70031;45.570;14.228;2023-07-22T04:13:00;96751.31;;;15.89;100.00
75815;BME280;70031;45.570;14.228;2023-07-22T04:15:01;96753.72;;;15.82;100.00
75815;BME280;70031;45.570;14.228;2023-07-22T04:17:01;96753.56;;;15.78;100.00
75815;BME280;70031;45.570;14.228;2023-07-22T04:19:04;96755.47;;;15.78;100.00
75815;BME280;70031;45.570;14.228;2023-07-22T04:21:04;96757.72;;;15.84;100.00
75815;BME280;70031;45.570;14.228;2023-07-22T04:23:05;96769.81;;;15.87;100.00
75815;BME280;70031;45.570;14.228;2023-07-22T04:25:05;96772.66;;;15.99;100.00
75815;BME280;70031;45.570;14.228;2023-07-22T04:27:06;96769.16;;;15.98;100.00
75815;BME280;70031;45.570;14.228;2023-07-22T04:29:06;96773.00;;;15.97;100.00
75815;BME280;70031;45.570;14.228;2023-07-22T04:31:08;96769.47;;;16.06;100.00
75815;BME280;70031;45.570;14.228;2023-07-22T04:33:09;96777.00;;;15.91;100.00
75815;BME280;70031;45.570;14.228;2023-07-22T04:35:12;96777.31;;;15.98;100.00
75815;BME280;70031;45.570;14.228;2023-07-22T04:37:13;96774.09;;;15.96;100.00
75815;BME280;70031;45.570;14.228;2023-07-22T04:39:13;96773.13;;;16.01;100.00
75815;BME280;70031;45.570;14.228;2023-07-22T04:41:13;96773.50;;;15.91;100.00
75815;BME280;70031;45.570;14.228;2023-07-22T04:43:15;96780.31;;;15.97;100.00
75815;BME280;70031;45.570;14.228;2023-07-22T04:45:15;96775.81;;;16.10;100.00
75815;BME280;70031;45.570;14.228;2023-07-22T04:47:15;96769.13;;;16.07;100.00
75815;BME280;70031;45.570;14.228;2023-07-22T04:49:16;96771.16;;;16.19;100.00
75815;BME280;70031;45.570;14.228;2023-07-22T04:51:17;96778.47;;;16.27;100.00
75815;BME280;70031;45.570;14.228;2023-07-22T04:53:18;96782.09;;;16.40;100.00
75815;BME280;70031;45.570;14.228;2023-07-22T04:55:18;96779.22;;;16.36;100.00
75815;BME280;70031;45.570;14.228;2023-07-22T04:57:20;96776.97;;;16.38;100.00
75815;BME280;70031;45.570;14.228;2023-07-22T04:59:21;96776.13;;;16.46;100.00
75815;BME280;70031;45.570;14.228;2023-07-22T05:01:21;96774.66;;;16.57;100.00
75815;BME280;70031;45.570;14.228;2023-07-22T05:03:22;96782.28;;;16.64;100.00
75815;BME280;70031;45.570;14.228;2023-07-22T05:05:25;96788.13;;;16.45;100.00
75815;BME280;70031;45.570;14.228;2023-07-22T05:07:25;96791.34;;;16.47;100.00
75815;BME280;70031;45.570;14.228;2023-07-22T05:09:26;96800.03;;;16.62;100.00
75815;BME280;70031;45.570;14.228;2023-07-22T05:11:27;96792.19;;;16.69;100.00
75815;BME280;70031;45.570;14.228;2023-07-22T05:13:27;96789.72;;;16.84;100.00
75815;BME280;70031;45.570;14.228;2023-07-22T05:15:27;96791.63;;;16.84;100.00
75815;BME280;70031;45.570;14.228;2023-07-22T05:17:28;96786.91;;;16.72;100.00
75815;BME280;70031;45.570;14.228;2023-07-22T05:19:29;96798.81;;;17.09;100.00
75815;BME280;70031;45.570;14.228;2023-07-22T05:21:30;96791.66;;;17.05;100.00
75815;BME280;70031;45.570;14.228;2023-07-22T05:23:30;96794.69;;;17.03;100.00
75815;BME280;70031;45.570;14.228;2023-07-22T05:25:30;96794.50;;;17.29;100.00
75815;BME280;70031;45.570;14.228;2023-07-22T05:27:31;96798.16;;;17.54;100.00
75815;BME280;70031;45.570;14.228;2023-07-22T05:29:31;96796.00;;;17.60;100.00
75815;BME280;70031;45.570;14.228;2023-07-22T05:31:31;96793.25;;;17.48;100.00
75815;BME280;70031;45.570;14.228;2023-07-22T05:33:32;96793.34;;;17.51;100.00
75815;BME280;70031;45.570;14.228;2023-07-22T05:35:32;96789.66;;;17.56;100.00
75815;BME280;70031;45.570;14.228;2023-07-22T05:37:33;96790.16;;;17.70;100.00
75815;BME280;70031;45.570;14.228;2023-07-22T05:39:33;96792.16;;;17.82;100.00
75815;BME280;70031;45.570;14.228;2023-07-22T05:41:34;96796.72;;;17.90;100.00
75815;BME280;70031;45.570;14.228;2023-07-22T05:43:34;96793.91;;;17.99;100.00
75815;BME280;70031;45.570;14.228;2023-07-22T05:45:34;96784.69;;;18.03;100.00
75815;BME280;70031;45.570;14.228;2023-07-22T05:47:35;96779.63;;;18.14;100.00
75815;BME280;70031;45.570;14.228;2023-07-22T05:49:35;96781.56;;;18.25;100.00
75815;BME280;70031;45.570;14.228;2023-07-22T05:51:36;96783.97;;;18.39;100.00
75815;BME280;70031;45.570;14.228;2023-07-22T05:53:36;96781.34;;;18.43;100.00
75815;BME280;70031;45.570;14.228;2023-07-22T05:55:37;96779.31;;;18.52;100.00
75815;BME280;70031;45.570;14.228;2023-07-22T05:57:37;96787.19;;;18.66;100.00
75815;BME280;70031;45.570;14.228;2023-07-22T05:59:37;96782.53;;;18.78;100.00
75815;BME280;70031;45.570;14.228;2023-07-22T06:01:39;96785.56;;;18.65;100.00
75815;BME280;70031;45.570;14.228;2023-07-22T06:03:41;96778.16;;;19.02;100.00
75815;BME280;70031;45.570;14.228;2023-07-22T06:05:42;96789.63;;;19.48;99.39
75815;BME280;70031;45.570;14.228;2023-07-22T06:07:42;96779.28;;;19.81;96.97
75815;BME280;70031;45.570;14.228;2023-07-22T06:09:43;96793.06;;;20.16;96.16
75815;BME280;70031;45.570;14.228;2023-07-22T06:11:43;96786.88;;;20.47;93.11
75815;BME280;70031;45.570;14.228;2023-07-22T06:13:43;96793.59;;;21.55;87.87
75815;BME280;70031;45.570;14.228;2023-07-22T06:15:44;96793.13;;;22.57;84.18
75815;BME280;70031;45.570;14.228;2023-07-22T06:17:44;96798.66;;;22.84;77.46
75815;BME280;70031;45.570;14.228;2023-07-22T06:19:44;96790.72;;;22.52;79.85
75815;BME280;70031;45.570;14.228;2023-07-22T06:21:45;96803.25;;;21.88;83.30
75815;BME280;70031;45.570;14.228;2023-07-22T06:23:45;96809.31;;;21.78;85.58
75815;BME280;70031;45.570;14.228;2023-07-22T06:25:46;96797.78;;;21.88;85.13
75815;BME280;70031;45.570;14.228;2023-07-22T06:27:46;96816.72;;;21.97;82.94
75815;BME280;70031;45.570;14.228;2023-07-22T06:29:47;96804.00;;;22.27;83.18
75815;BME280;70031;45.570;14.228;2023-07-22T06:31:47;96810.59;;;23.21;80.47
75815;BME280;70031;45.570;14.228;2023-07-22T06:33:48;96812.53;;;24.11;76.61
75815;BME280;70031;45.570;14.228;2023-07-22T06:35:48;96813.47;;;24.26;74.44
75815;BME280;70031;45.570;14.228;2023-07-22T06:37:48;96823.47;;;24.89;67.97
75815;BME280;70031;45.570;14.228;2023-07-22T06:39:49;96821.50;;;24.89;67.85
75815;BME280;70031;45.570;14.228;2023-07-22T06:41:49;96818.75;;;25.44;67.56
75815;BME280;70031;45.570;14.228;2023-07-22T06:43:50;96820.94;;;25.97;66.35
75815;BME280;70031;45.570;14.228;2023-07-22T06:45:50;96820.41;;;25.60;67.42
75815;BME280;70031;45.570;14.228;2023-07-22T06:47:51;96822.13;;;25.93;65.38
75815;BME280;70031;45.570;14.228;2023-07-22T06:49:51;96823.72;;;25.90;64.14
75815;BME280;70031;45.570;14.228;2023-07-22T06:51:52;96828.28;;;25.61;65.88
75815;BME280;70031;45.570;14.228;2023-07-22T06:53:52;96825.28;;;24.71;69.00
75815;BME280;70031;45.570;14.228;2023-07-22T06:55:52;96820.22;;;24.76;72.08
75815;BME280;70031;45.570;14.228;2023-07-22T06:57:55;96818.19;;;24.66;71.65
75815;BME280;70031;45.570;14.228;2023-07-22T06:59:56;96815.84;;;24.27;72.50
75815;BME280;70031;45.570;14.228;2023-07-22T07:01:56;96824.38;;;24.19;71.12
75815;BME280;70031;45.570;14.228;2023-07-22T07:03:57;96834.53;;;23.77;74.72
75815;BME280;70031;45.570;14.228;2023-07-22T07:05:57;96830.75;;;23.59;77.11
75815;BME280;70031;45.570;14.228;2023-07-22T07:07:58;96826.78;;;23.26;78.27
75815;BME280;70031;45.570;14.228;2023-07-22T07:09:58;96832.59;;;23.25;80.49
75815;BME280;70031;45.570;14.228;2023-07-22T07:11:59;96830.84;;;23.10;78.94
75815;BME280;70031;45.570;14.228;2023-07-22T07:13:59;96837.69;;;22.96;78.93
75815;BME280;70031;45.570;14.228;2023-07-22T07:16:20;96836.97;;;22.77;75.46
75815;BME280;70031;45.570;14.228;2023-07-22T07:18:22;96839.97;;;22.45;81.30
75815;BME280;70031;45.570;14.228;2023-07-22T07:20:22;96833.81;;;22.52;79.53
75815;BME280;70031;45.570;14.228;2023-07-22T07:22:22;96828.91;;;22.41;80.46
75815;BME280;70031;45.570;14.228;2023-07-22T07:24:23;96832.81;;;22.63;78.64
75815;BME280;70031;45.570;14.228;2023-07-22T07:26:23;96829.03;;;22.71;77.55
75815;BME280;70031;45.570;14.228;2023-07-22T07:28:24;96830.66;;;22.99;76.97
75815;BME280;70031;45.570;14.228;2023-07-22T07:30:24;96845.75;;;22.86;77.79
75815;BME280;70031;45.570;14.228;2023-07-22T07:32:24;96837.06;;;22.84;78.05
75815;BME280;70031;45.570;14.228;2023-07-22T07:34:25;96844.50;;;22.83;77.30
75815;BME280;70031;45.570;14.228;2023-07-22T07:36:25;96841.19;;;22.93;80.72
75815;BME280;70031;45.570;14.228;2023-07-22T07:38:26;96834.28;;;23.03;78.33
75815;BME280;70031;45.570;14.228;2023-07-22T07:40:26;96838.28;;;23.09;79.15
75815;BME280;70031;45.570;14.228;2023-07-22T07:42:27;96838.47;;;22.97;79.81
75815;BME280;70031;45.570;14.228;2023-07-22T07:44:27;96841.66;;;23.25;82.17
75815;BME280;70031;45.570;14.228;2023-07-22T07:46:28;96853.16;;;23.61;77.74
75815;BME280;70031;45.570;14.228;2023-07-22T07:48:28;96852.38;;;23.61;72.91
75815;BME280;70031;45.570;14.228;2023-07-22T07:50:29;96853.97;;;23.65;76.64
75815;BME280;70031;45.570;14.228;2023-07-22T07:52:29;96847.66;;;23.61;76.52
75815;BME280;70031;45.570;14.228;2023-07-22T07:54:29;96846.22;;;23.71;78.74
75815;BME280;70031;45.570;14.228;2023-07-22T07:56:30;96849.81;;;23.75;73.32
75815;BME280;70031;45.570;14.228;2023-07-22T07:58:30;96852.59;;;23.78;76.04
75815;BME280;70031;45.570;14.228;2023-07-22T08:00:31;96847.97;;;23.86;77.29
75815;BME280;70031;45.570;14.228;2023-07-22T08:02:31;96849.00;;;23.74;71.34
75815;BME280;70031;45.570;14.228;2023-07-22T08:04:31;96854.66;;;23.85;73.14
75815;BME280;70031;45.570;14.228;2023-07-22T08:06:32;96848.38;;;23.85;72.03
75815;BME280;70031;45.570;14.228;2023-07-22T08:08:33;96846.13;;;23.94;71.99
75815;BME280;70031;45.570;14.228;2023-07-22T08:10:34;96844.44;;;23.29;70.57
75815;BME280;70031;45.570;14.228;2023-07-22T08:12:34;96843.84;;;23.69;69.63
75815;BME280;70031;45.570;14.228;2023-07-22T08:14:35;96837.38;;;24.22;70.81
75815;BME280;70031;45.570;14.228;2023-07-22T08:16:36;96850.75;;;24.60;63.74
75815;BME280;70031;45.570;14.228;2023-07-22T08:18:37;96850.09;;;25.22;67.02
75815;BME280;70031;45.570;14.228;2023-07-22T08:20:37;96848.53;;;24.77;66.16
75815;BME280;70031;45.570;14.228;2023-07-22T08:22:37;96845.19;;;25.01;65.78
75815;BME280;70031;45.570;14.228;2023-07-22T08:24:38;96844.06;;;25.06;62.59
75815;BME280;70031;45.570;14.228;2023-07-22T08:26:38;96848.94;;;25.99;63.32
75815;BME280;70031;45.570;14.228;2023-07-22T08:28:38;96841.47;;;25.31;59.50
75815;BME280;70031;45.570;14.228;2023-07-22T08:30:39;96832.22;;;24.54;60.41
75815;BME280;70031;45.570;14.228;2023-07-22T08:32:40;96839.38;;;24.65;62.09
75815;BME280;70031;45.570;14.228;2023-07-22T08:34:40;96825.81;;;24.90;60.19
75815;BME280;70031;45.570;14.228;2023-07-22T08:36:41;96837.47;;;25.17;65.24
75815;BME280;70031;45.570;14.228;2023-07-22T08:38:42;96824.94;;;25.31;61.73
75815;BME280;70031;45.570;14.228;2023-07-22T08:40:42;96833.16;;;25.24;62.91
75815;BME280;70031;45.570;14.228;2023-07-22T08:42:45;96836.38;;;26.09;63.72
75815;BME280;70031;45.570;14.228;2023-07-22T08:44:48;96829.00;;;26.81;58.14
75815;BME280;70031;45.570;14.228;2023-07-22T08:46:50;96824.28;;;26.60;57.19
75815;BME280;70031;45.570;14.228;2023-07-22T08:48:56;96833.34;;;26.53;56.57
75815;BME280;70031;45.570;14.228;2023-07-22T08:51:07;96835.16;;;25.99;54.78
75815;BME280;70031;45.570;14.228;2023-07-22T08:53:10;96837.72;;;25.64;56.50
75815;BME280;70031;45.570;14.228;2023-07-22T08:55:10;96838.59;;;25.71;59.49
75815;BME280;70031;45.570;14.228;2023-07-22T08:57:12;96833.69;;;25.43;58.34
75815;BME280;70031;45.570;14.228;2023-07-22T08:59:12;96838.38;;;25.39;60.48
75815;BME280;70031;45.570;14.228;2023-07-22T09:01:14;96834.72;;;25.83;58.35
75815;BME280;70031;45.570;14.228;2023-07-22T09:03:16;96837.88;;;25.85;58.53
75815;BME280;70031;45.570;14.228;2023-07-22T09:05:16;96840.13;;;25.69;61.02
75815;BME280;70031;45.570;14.228;2023-07-22T09:07:17;96830.59;;;24.93;57.32
75815;BME280;70031;45.570;14.228;2023-07-22T09:09:18;96829.91;;;25.04;64.63
75815;BME280;70031;45.570;14.228;2023-07-22T09:11:19;96828.38;;;25.10;59.97
75815;BME280;70031;45.570;14.228;2023-07-22T09:13:21;96824.41;;;25.73;58.84
75815;BME280;70031;45.570;14.228;2023-07-22T09:15:22;96837.69;;;26.79;62.63
75815;BME280;70031;45.570;14.228;2023-07-22T09:17:23;96835.94;;;26.03;54.74
75815;BME280;70031;45.570;14.228;2023-07-22T09:19:25;96829.78;;;26.88;55.65
75815;BME280;70031;45.570;14.228;2023-07-22T09:21:26;96829.38;;;27.33;53.82
75815;BME280;70031;45.570;14.228;2023-07-22T09:23:34;96822.31;;;26.60;52.88
75815;BME280;70031;45.570;14.228;2023-07-22T09:25:39;96827.81;;;27.32;57.92
75815;BME280;70031;45.570;14.228;2023-07-22T09:27:39;96828.59;;;27.22;54.10
75815;BME280;70031;45.570;14.228;2023-07-22T09:29:39;96837.31;;;26.84;53.31
75815;BME280;70031;45.570;14.228;2023-07-22T09:31:52;96841.25;;;26.94;56.82
75815;BME280;70031;45.570;14.228;2023-07-22T09:33:53;96838.47;;;26.80;56.33
75815;BME280;70031;45.570;14.228;2023-07-22T09:35:54;96838.84;;;26.71;57.88
75815;BME280;70031;45.570;14.228;2023-07-22T09:37:55;96836.94;;;27.14;59.34
75815;BME280;70031;45.570;14.228;2023-07-22T09:39:55;96834.16;;;27.07;59.36
75815;BME280;70031;45.570;14.228;2023-07-22T09:41:56;96830.94;;;27.41;55.97
75815;BME280;70031;45.570;14.228;2023-07-22T09:44:02;96833.34;;;26.60;59.43
75815;BME280;70031;45.570;14.228;2023-07-22T09:46:10;96841.13;;;26.30;55.88
75815;BME280;70031;45.570;14.228;2023-07-22T09:48:10;96836.81;;;26.25;59.54
75815;BME280;70031;45.570;14.228;2023-07-22T09:50:19;96844.38;;;26.50;57.27
75815;BME280;70031;45.570;14.228;2023-07-22T09:52:20;96834.53;;;26.95;59.04
75815;BME280;70031;45.570;14.228;2023-07-22T09:54:20;96830.16;;;26.48;55.88
75815;BME280;70031;45.570;14.228;2023-07-22T09:56:20;96833.75;;;26.91;56.46
75815;BME280;70031;45.570;14.228;2023-07-22T09:58:26;96828.16;;;26.34;58.80
75815;BME280;70031;45.570;14.228;2023-07-22T10:00:32;96817.94;;;26.81;60.21
75815;BME280;70031;45.570;14.228;2023-07-22T10:02:33;96822.63;;;27.44;59.01
75815;BME280;70031;45.570;14.228;2023-07-22T10:04:35;96823.63;;;28.04;60.17
75815;BME280;70031;45.570;14.228;2023-07-22T10:06:38;96818.97;;;27.80;57.90
75815;BME280;70031;45.570;14.228;2023-07-22T10:08:38;96828.63;;;27.18;53.89
75815;BME280;70031;45.570;14.228;2023-07-22T10:10:42;96830.13;;;26.33;59.95
75815;BME280;70031;45.570;14.228;2023-07-22T10:12:44;96825.44;;;26.41;60.54
75815;BME280;70031;45.570;14.228;2023-07-22T10:14:45;96814.84;;;27.07;64.95
75815;BME280;70031;45.570;14.228;2023-07-22T10:16:46;96823.13;;;27.07;64.19
75815;BME280;70031;45.570;14.228;2023-07-22T10:18:48;96819.88;;;26.34;60.02
75815;BME280;70031;45.570;14.228;2023-07-22T10:20:49;96816.78;;;27.03;64.21
75815;BME280;70031;45.570;14.228;2023-07-22T10:22:51;96807.22;;;27.47;60.95
75815;BME280;70031;45.570;14.228;2023-07-22T10:24:52;96810.34;;;27.70;60.06
75815;BME280;70031;45.570;14.228;2023-07-22T10:26:56;96801.94;;;27.99;58.87
75815;BME280;70031;45.570;14.228;2023-07-22T10:28:56;96803.66;;;27.54;61.85
75815;BME280;70031;45.570;14.228;2023-07-22T10:30:59;96802.59;;;26.69;58.21